sensor_id;sensor_type;location;lat;lon;timestamp;pressure;altitude;pressure_sealevel;temperature;humidity
60642;BME280;46837;52.446;-1.930;2023-03-14T00:00:13;97476.79;;;6.17;78.46
60642;BME280;46837;52.446;-1.930;2023-03-14T00:01:09;97472.75;;;6.13;78.18
60642;BME280;46837;52.446;-1.930;2023-03-14T00:02:09;97471.50;;;6.15;78.66
60642;BME280;46837;52.446;-1.930;2023-03-14T00:03:09;97476.08;;;6.17;78.66
60642;BME280;46837;52.446;-1.930;2023-03-14T00:04:09;97473.18;;;6.16;78.58
60642;BME280;46837;52.446;-1.930;2023-03-14T00:05:09;97480.34;;;6.08;78.54
60642;BME280;46837;52.446;-1.930;2023-03-14T00:06:09;97476.35;;;6.10;78.85
60642;BME280;46837;52.446;-1.930;2023-03-14T00:07:10;97481.82;;;6.10;78.88
60642;BME280;46837;52.446;-1.930;2023-03-14T00:08:09;97486.98;;;6.12;78.95
60642;BME280;46837;52.446;-1.930;2023-03-14T00:09:09;97491.60;;;6.11;79.08
60642;BME280;46837;52.446;-1.930;2023-03-14T00:10:11;97485.32;;;6.09;79.13
60642;BME280;46837;52.446;-1.930;2023-03-14T00:11:13;97491.60;;;6.09;79.45
60642;BME280;46837;52.446;-1.930;2023-03-14T00:12:09;97496.45;;;6.08;79.65
60642;BME280;46837;52.446;-1.930;2023-03-14T00:13:09;97496.28;;;6.06;79.74
60642;BME280;46837;52.446;-1.930;2023-03-14T00:14:09;97501.46;;;6.00;79.28
60642;BME280;46837;52.446;-1.930;2023-03-14T00:15:09;97507.15;;;5.94;79.43
60642;BME280;46837;52.446;-1.930;2023-03-14T00:16:12;97508.65;;;5.89;79.44
60642;BME280;46837;52.446;-1.930;2023-03-14T00:17:09;97508.01;;;5.93;79.53
60642;BME280;46837;52.446;-1.930;2023-03-14T00:18:09;97500.64;;;5.86;79.23
60642;BME280;46837;52.446;-1.930;2023-03-14T00:19:09;97509.70;;;5.90;79.46
60642;BME280;46837;52.446;-1.930;2023-03-14T00:20:11;97520.42;;;5.91;79.44
60642;BME280;46837;52.446;-1.930;2023-03-14T00:21:09;97516.38;;;5.85;79.38
60642;BME280;46837;52.446;-1.930;2023-03-14T00:22:09;97523.90;;;5.85;79.09
60642;BME280;46837;52.446;-1.930;2023-03-14T00:23:09;97532.86;;;5.82;78.88
60642;BME280;46837;52.446;-1.930;2023-03-14T00:24:09;97525.29;;;5.72;78.31
60642;BME280;46837;52.446;-1.930;2023-03-14T00:25:09;97532.16;;;5.73;78.38
60642;BME280;46837;52.446;-1.930;2023-03-14T00:26:11;97529.38;;;5.64;77.97
60642;BME280;46837;52.446;-1.930;2023-03-14T00:27:09;97543.99;;;5.69;78.06
60642;BME280;46837;52.446;-1.930;2023-03-14T00:28:09;97536.71;;;5.73;78.18
60642;BME280;46837;52.446;-1.930;2023-03-14T00:29:09;97548.49;;;5.75;78.13
60642;BME280;46837;52.446;-1.930;2023-03-14T00:30:09;97549.43;;;5.63;77.14
60642;BME280;46837;52.446;-1.930;2023-03-14T00:31:09;97544.61;;;5.60;76.73
60642;BME280;46837;52.446;-1.930;2023-03-14T00:32:09;97550.81;;;5.68;77.10
60642;BME280;46837;52.446;-1.930;2023-03-14T00:33:09;97562.65;;;5.66;76.88
60642;BME280;46837;52.446;-1.930;2023-03-14T00:34:09;97564.33;;;5.58;76.48
60642;BME280;46837;52.446;-1.930;2023-03-14T00:35:09;97567.86;;;5.62;76.81
60642;BME280;46837;52.446;-1.930;2023-03-14T00:36:10;97564.29;;;5.54;75.80
60642;BME280;46837;52.446;-1.930;2023-03-14T00:37:09;97572.49;;;5.52;75.90
60642;BME280;46837;52.446;-1.930;2023-03-14T00:38:09;97574.26;;;5.56;76.00
60642;BME280;46837;52.446;-1.930;2023-03-14T00:39:09;97583.36;;;5.54;75.92
60642;BME280;46837;52.446;-1.930;2023-03-14T00:40:09;97585.54;;;5.53;75.86
60642;BME280;46837;52.446;-1.930;2023-03-14T00:41:10;97588.65;;;5.51;75.75
60642;BME280;46837;52.446;-1.930;2023-03-14T00:42:09;97594.39;;;5.51;75.91
60642;BME280;46837;52.446;-1.930;2023-03-14T00:43:09;97594.94;;;5.48;75.67
60642;BME280;46837;52.446;-1.930;2023-03-14T00:44:09;97599.55;;;5.44;75.02
60642;BME280;46837;52.446;-1.930;2023-03-14T00:45:09;97604.08;;;5.46;75.17
60642;BME280;46837;52.446;-1.930;2023-03-14T00:46:09;97605.61;;;5.48;75.00
60642;BME280;46837;52.446;-1.930;2023-03-14T00:47:09;97608.96;;;5.45;74.76
60642;BME280;46837;52.446;-1.930;2023-03-14T00:48:09;97611.82;;;5.49;75.02
60642;BME280;46837;52.446;-1.930;2023-03-14T00:49:09;97609.27;;;5.50;74.98
60642;BME280;46837;52.446;-1.930;2023-03-14T00:50:09;97616.58;;;5.47;74.84
60642;BME280;46837;52.446;-1.930;2023-03-14T00:51:09;97611.81;;;5.47;74.89
60642;BME280;46837;52.446;-1.930;2023-03-14T00:52:09;97619.96;;;5.42;74.32
60642;BME280;46837;52.446;-1.930;2023-03-14T00:53:09;97618.45;;;5.42;74.58
60642;BME280;46837;52.446;-1.930;2023-03-14T00:54:09;97620.29;;;5.45;74.59
60642;BME280;46837;52.446;-1.930;2023-03-14T00:55:09;97624.69;;;5.41;74.36
60642;BME280;46837;52.446;-1.930;2023-03-14T00:56:09;97625.17;;;5.38;74.09
60642;BME280;46837;52.446;-1.930;2023-03-14T00:57:09;97620.03;;;5.32;73.09
60642;BME280;46837;52.446;-1.930;2023-03-14T00:58:10;97616.71;;;5.33;73.39
60642;BME280;46837;52.446;-1.930;2023-03-14T00:59:09;97622.25;;;5.32;73.30
60642;BME280;46837;52.446;-1.930;2023-03-14T01:00:09;97623.34;;;5.26;72.66
60642;BME280;46837;52.446;-1.930;2023-03-14T01:01:14;97624.39;;;5.20;71.93
60642;BME280;46837;52.446;-1.930;2023-03-14T01:02:09;97627.14;;;5.24;72.30
60642;BME280;46837;52.446;-1.930;2023-03-14T01:03:09;97627.05;;;5.17;71.80
60642;BME280;46837;52.446;-1.930;2023-03-14T01:04:09;97630.65;;;5.16;71.67
60642;BME280;46837;52.446;-1.930;2023-03-14T01:05:09;97630.25;;;5.12;71.72
60642;BME280;46837;52.446;-1.930;2023-03-14T01:07:09;97639.99;;;5.06;70.76
60642;BME280;46837;52.446;-1.930;2023-03-14T01:08:09;97649.66;;;5.11;71.06
60642;BME280;46837;52.446;-1.930;2023-03-14T01:09:09;97646.14;;;5.12;71.22
60642;BME280;46837;52.446;-1.930;2023-03-14T01:10:09;97650.04;;;5.12;70.97
60642;BME280;46837;52.446;-1.930;2023-03-14T01:11:13;97644.70;;;5.10;70.65
60642;BME280;46837;52.446;-1.930;2023-03-14T01:12:09;97650.98;;;5.06;70.09
60642;BME280;46837;52.446;-1.930;2023-03-14T01:13:09;97657.99;;;5.09;70.53
60642;BME280;46837;52.446;-1.930;2023-03-14T01:14:09;97657.95;;;5.07;69.97
60642;BME280;46837;52.446;-1.930;2023-03-14T01:15:09;97658.92;;;5.04;69.52
60642;BME280;46837;52.446;-1.930;2023-03-14T01:16:09;97660.46;;;4.99;69.16
60642;BME280;46837;52.446;-1.930;2023-03-14T01:17:09;97650.88;;;4.99;69.57
60642;BME280;46837;52.446;-1.930;2023-03-14T01:18:09;97664.34;;;5.00;69.72
60642;BME280;46837;52.446;-1.930;2023-03-14T01:19:09;97659.62;;;4.98;69.48
60642;BME280;46837;52.446;-1.930;2023-03-14T01:20:10;97664.43;;;4.94;69.35
60642;BME280;46837;52.446;-1.930;2023-03-14T01:21:14;97665.26;;;5.00;70.16
60642;BME280;46837;52.446;-1.930;2023-03-14T01:22:09;97674.88;;;5.01;70.30
60642;BME280;46837;52.446;-1.930;2023-03-14T01:23:09;97676.91;;;4.98;70.34
60642;BME280;46837;52.446;-1.930;2023-03-14T01:24:10;97677.88;;;4.95;70.15
60642;BME280;46837;52.446;-1.930;2023-03-14T01:25:10;97676.56;;;4.94;70.07
60642;BME280;46837;52.446;-1.930;2023-03-14T01:26:12;97679.39;;;4.96;70.40
60642;BME280;46837;52.446;-1.930;2023-03-14T01:27:09;97680.21;;;4.99;70.77
60642;BME280;46837;52.446;-1.930;2023-03-14T01:28:09;97670.83;;;4.96;70.86
60642;BME280;46837;52.446;-1.930;2023-03-14T01:29:09;97675.27;;;4.93;70.84
60642;BME280;46837;52.446;-1.930;2023-03-14T01:30:09;97677.42;;;4.94;70.89
60642;BME280;46837;52.446;-1.930;2023-03-14T01:31:09;97679.69;;;4.91;70.84
60642;BME280;46837;52.446;-1.930;2023-03-14T01:32:09;97677.31;;;4.95;71.34
60642;BME280;46837;52.446;-1.930;2023-03-14T01:33:09;97681.01;;;4.96;71.42
60642;BME280;46837;52.446;-1.930;2023-03-14T01:34:09;97684.84;;;4.94;71.39
60642;BME280;46837;52.446;-1.930;2023-03-14T01:35:09;97685.22;;;4.94;71.58
60642;BME280;46837;52.446;-1.930;2023-03-14T01:36:09;97693.41;;;4.92;71.66
60642;BME280;46837;52.446;-1.930;2023-03-14T01:37:10;97689.62;;;4.92;71.82
60642;BME280;46837;52.446;-1.930;2023-03-14T01:38:09;97689.71;;;4.89;71.88
60642;BME280;46837;52.446;-1.930;2023-03-14T01:39:09;97691.50;;;4.90;72.01
60642;BME280;46837;52.446;-1.930;2023-03-14T01:40:10;97692.26;;;4.89;71.87
60642;BME280;46837;52.446;-1.930;2023-03-14T01:41:12;97694.52;;;4.87;71.68
60642;BME280;46837;52.446;-1.930;2023-03-14T01:42:09;97694.48;;;4.89;71.98
60642;BME280;46837;52.446;-1.930;2023-03-14T01:43:14;97693.34;;;4.85;71.85
60642;BME280;46837;52.446;-1.930;2023-03-14T01:44:11;97691.38;;;4.87;72.13
60642;BME280;46837;52.446;-1.930;2023-03-14T01:47:09;97702.68;;;4.84;72.14
60642;BME280;46837;52.446;-1.930;2023-03-14T01:48:09;97709.83;;;4.82;72.17
60642;BME280;46837;52.446;-1.930;2023-03-14T01:50:09;97725.33;;;4.77;72.13
60642;BME280;46837;52.446;-1.930;2023-03-14T01:51:14;97731.21;;;4.82;72.25
60642;BME280;46837;52.446;-1.930;2023-03-14T01:53:09;97740.62;;;4.78;72.36
60642;BME280;46837;52.446;-1.930;2023-03-14T01:54:19;97740.08;;;4.82;72.67
60642;BME280;46837;52.446;-1.930;2023-03-14T01:55:15;97742.86;;;4.84;72.90
60642;BME280;46837;52.446;-1.930;2023-03-14T01:56:09;97744.09;;;4.82;72.57
60642;BME280;46837;52.446;-1.930;2023-03-14T01:57:17;97748.84;;;4.78;72.42
60642;BME280;46837;52.446;-1.930;2023-03-14T01:58:09;97752.17;;;4.77;72.58
60642;BME280;46837;52.446;-1.930;2023-03-14T01:59:09;97748.18;;;4.75;72.48
60642;BME280;46837;52.446;-1.930;2023-03-14T02:00:19;97749.41;;;4.68;71.84
60642;BME280;46837;52.446;-1.930;2023-03-14T02:01:09;97750.29;;;4.71;72.12
60642;BME280;46837;52.446;-1.930;2023-03-14T02:02:10;97748.93;;;4.75;72.31
60642;BME280;46837;52.446;-1.930;2023-03-14T02:03:13;97746.10;;;4.73;72.24
60642;BME280;46837;52.446;-1.930;2023-03-14T02:04:09;97747.95;;;4.76;72.58
60642;BME280;46837;52.446;-1.930;2023-03-14T02:05:09;97737.61;;;4.73;72.23
60642;BME280;46837;52.446;-1.930;2023-03-14T02:06:09;97740.46;;;4.66;72.35
60642;BME280;46837;52.446;-1.930;2023-03-14T02:08:11;97736.44;;;4.63;72.53
60642;BME280;46837;52.446;-1.930;2023-03-14T02:09:09;97743.70;;;4.57;72.05
60642;BME280;46837;52.446;-1.930;2023-03-14T02:10:09;97751.27;;;4.57;72.23
60642;BME280;46837;52.446;-1.930;2023-03-14T02:11:10;97750.16;;;4.50;72.02
60642;BME280;46837;52.446;-1.930;2023-03-14T02:12:13;97761.50;;;4.52;72.23
60642;BME280;46837;52.446;-1.930;2023-03-14T02:13:09;97757.89;;;4.50;72.06
60642;BME280;46837;52.446;-1.930;2023-03-14T02:14:12;97767.91;;;4.53;72.03
60642;BME280;46837;52.446;-1.930;2023-03-14T02:15:09;97771.25;;;4.49;71.64
60642;BME280;46837;52.446;-1.930;2023-03-14T02:16:09;97774.91;;;4.53;72.06
60642;BME280;46837;52.446;-1.930;2023-03-14T02:17:09;97774.07;;;4.54;72.12
60642;BME280;46837;52.446;-1.930;2023-03-14T02:18:09;97781.80;;;4.55;72.08
60642;BME280;46837;52.446;-1.930;2023-03-14T02:19:09;97782.75;;;4.47;71.45
60642;BME280;46837;52.446;-1.930;2023-03-14T02:22:12;97777.46;;;4.51;71.89
60642;BME280;46837;52.446;-1.930;2023-03-14T02:23:09;97782.66;;;4.51;71.98
60642;BME280;46837;52.446;-1.930;2023-03-14T02:24:15;97781.92;;;4.53;72.04
60642;BME280;46837;52.446;-1.930;2023-03-14T02:26:19;97781.07;;;4.47;72.04
60642;BME280;46837;52.446;-1.930;2023-03-14T02:27:18;97783.51;;;4.47;71.95
60642;BME280;46837;52.446;-1.930;2023-03-14T02:28:09;97790.03;;;4.46;71.86
60642;BME280;46837;52.446;-1.930;2023-03-14T02:29:09;97787.56;;;4.48;72.11
60642;BME280;46837;52.446;-1.930;2023-03-14T02:30:16;97792.34;;;4.41;71.48
60642;BME280;46837;52.446;-1.930;2023-03-14T02:31:09;97796.58;;;4.44;71.52
60642;BME280;46837;52.446;-1.930;2023-03-14T02:32:09;97801.11;;;4.40;71.36
60642;BME280;46837;52.446;-1.930;2023-03-14T02:33:10;97801.34;;;4.43;71.64
60642;BME280;46837;52.446;-1.930;2023-03-14T02:34:09;97803.48;;;4.41;71.26
60642;BME280;46837;52.446;-1.930;2023-03-14T02:35:10;97807.21;;;4.40;71.11
60642;BME280;46837;52.446;-1.930;2023-03-14T02:36:11;97813.64;;;4.41;71.16
60642;BME280;46837;52.446;-1.930;2023-03-14T02:37:09;97812.54;;;4.43;71.24
60642;BME280;46837;52.446;-1.930;2023-03-14T02:38:15;97814.27;;;4.43;71.29
60642;BME280;46837;52.446;-1.930;2023-03-14T02:39:19;97820.80;;;4.43;71.29
60642;BME280;46837;52.446;-1.930;2023-03-14T02:40:09;97823.94;;;4.44;71.43
60642;BME280;46837;52.446;-1.930;2023-03-14T02:41:09;97825.46;;;4.42;71.32
60642;BME280;46837;52.446;-1.930;2023-03-14T02:42:09;97826.92;;;4.42;71.38
60642;BME280;46837;52.446;-1.930;2023-03-14T02:43:09;97828.57;;;4.40;71.38
60642;BME280;46837;52.446;-1.930;2023-03-14T02:44:09;97829.97;;;4.41;71.23
60642;BME280;46837;52.446;-1.930;2023-03-14T02:46:13;97835.70;;;4.42;71.46
60642;BME280;46837;52.446;-1.930;2023-03-14T02:47:09;97844.30;;;4.42;71.37
60642;BME280;46837;52.446;-1.930;2023-03-14T02:48:16;97845.52;;;4.42;71.47
60642;BME280;46837;52.446;-1.930;2023-03-14T02:49:10;97845.53;;;4.38;71.23
60642;BME280;46837;52.446;-1.930;2023-03-14T02:50:12;97846.51;;;4.36;71.15
60642;BME280;46837;52.446;-1.930;2023-03-14T02:51:09;97843.89;;;4.33;71.19
60642;BME280;46837;52.446;-1.930;2023-03-14T02:52:09;97848.98;;;4.32;71.15
60642;BME280;46837;52.446;-1.930;2023-03-14T02:53:09;97850.76;;;4.34;71.40
60642;BME280;46837;52.446;-1.930;2023-03-14T02:54:09;97853.41;;;4.33;71.19
60642;BME280;46837;52.446;-1.930;2023-03-14T02:55:09;97852.25;;;4.29;71.20
60642;BME280;46837;52.446;-1.930;2023-03-14T02:56:09;97855.84;;;4.28;70.89
60642;BME280;46837;52.446;-1.930;2023-03-14T02:57:09;97851.84;;;4.27;70.83
60642;BME280;46837;52.446;-1.930;2023-03-14T02:58:09;97861.12;;;4.24;70.68
60642;BME280;46837;52.446;-1.930;2023-03-14T02:59:09;97864.77;;;4.28;71.11
60642;BME280;46837;52.446;-1.930;2023-03-14T03:00:09;97864.02;;;4.25;71.11
60642;BME280;46837;52.446;-1.930;2023-03-14T03:01:09;97867.80;;;4.25;70.88
60642;BME280;46837;52.446;-1.930;2023-03-14T03:02:09;97869.10;;;4.26;70.86
60642;BME280;46837;52.446;-1.930;2023-03-14T03:03:09;97872.50;;;4.28;71.01
60642;BME280;46837;52.446;-1.930;2023-03-14T03:04:09;97872.29;;;4.25;70.92
60642;BME280;46837;52.446;-1.930;2023-03-14T03:05:09;97879.04;;;4.25;70.98
60642;BME280;46837;52.446;-1.930;2023-03-14T03:06:09;97869.37;;;4.26;70.82
60642;BME280;46837;52.446;-1.930;2023-03-14T03:07:09;97875.45;;;4.22;70.67
60642;BME280;46837;52.446;-1.930;2023-03-14T03:08:09;97875.40;;;4.23;70.76
60642;BME280;46837;52.446;-1.930;2023-03-14T03:09:09;97878.18;;;4.20;70.75
60642;BME280;46837;52.446;-1.930;2023-03-14T03:10:09;97877.93;;;4.24;70.71
60642;BME280;46837;52.446;-1.930;2023-03-14T03:11:09;97876.61;;;4.19;70.61
60642;BME280;46837;52.446;-1.930;2023-03-14T03:12:09;97872.56;;;4.18;70.78
60642;BME280;46837;52.446;-1.930;2023-03-14T03:13:09;97887.05;;;4.18;70.78
60642;BME280;46837;52.446;-1.930;2023-03-14T03:14:09;97882.48;;;4.17;70.53
60642;BME280;46837;52.446;-1.930;2023-03-14T03:15:09;97889.35;;;4.15;70.44
60642;BME280;46837;52.446;-1.930;2023-03-14T03:16:09;97886.70;;;4.14;70.58
60642;BME280;46837;52.446;-1.930;2023-03-14T03:17:09;97890.13;;;4.13;70.39
60642;BME280;46837;52.446;-1.930;2023-03-14T03:18:09;97889.51;;;4.15;70.42
60642;BME280;46837;52.446;-1.930;2023-03-14T03:19:09;97897.86;;;4.13;70.52
60642;BME280;46837;52.446;-1.930;2023-03-14T03:20:11;97896.08;;;4.11;70.54
60642;BME280;46837;52.446;-1.930;2023-03-14T03:21:09;97902.95;;;4.11;70.11
60642;BME280;46837;52.446;-1.930;2023-03-14T03:22:09;97904.10;;;4.10;70.05
60642;BME280;46837;52.446;-1.930;2023-03-14T03:23:09;97911.38;;;4.12;70.35
60642;BME280;46837;52.446;-1.930;2023-03-14T03:24:09;97910.89;;;4.12;70.21
60642;BME280;46837;52.446;-1.930;2023-03-14T03:25:09;97916.21;;;4.16;70.46
60642;BME280;46837;52.446;-1.930;2023-03-14T03:26:09;97916.43;;;4.15;70.45
60642;BME280;46837;52.446;-1.930;2023-03-14T03:27:09;97920.18;;;4.19;70.59
60642;BME280;46837;52.446;-1.930;2023-03-14T03:28:10;97918.94;;;4.11;70.13
60642;BME280;46837;52.446;-1.930;2023-03-14T03:29:09;97923.21;;;4.12;70.15
60642;BME280;46837;52.446;-1.930;2023-03-14T03:30:09;97922.34;;;4.12;70.07
60642;BME280;46837;52.446;-1.930;2023-03-14T03:31:09;97922.89;;;4.12;70.06
60642;BME280;46837;52.446;-1.930;2023-03-14T03:32:09;97921.96;;;4.14;70.57
60642;BME280;46837;52.446;-1.930;2023-03-14T03:33:09;97928.26;;;4.11;70.39
60642;BME280;46837;52.446;-1.930;2023-03-14T03:34:09;97924.78;;;4.12;70.51
60642;BME280;46837;52.446;-1.930;2023-03-14T03:35:09;97926.29;;;4.12;70.60
60642;BME280;46837;52.446;-1.930;2023-03-14T03:36:09;97920.86;;;4.14;70.83
60642;BME280;46837;52.446;-1.930;2023-03-14T03:37:09;97925.94;;;4.10;70.78
60642;BME280;46837;52.446;-1.930;2023-03-14T03:38:09;97925.83;;;4.08;70.63
60642;BME280;46837;52.446;-1.930;2023-03-14T03:39:09;97931.83;;;4.10;70.85
60642;BME280;46837;52.446;-1.930;2023-03-14T03:40:09;97931.94;;;4.09;70.85
60642;BME280;46837;52.446;-1.930;2023-03-14T03:41:09;97929.40;;;4.08;70.75
60642;BME280;46837;52.446;-1.930;2023-03-14T03:42:09;97944.42;;;4.09;71.09
60642;BME280;46837;52.446;-1.930;2023-03-14T03:43:09;97938.55;;;4.06;71.02
60642;BME280;46837;52.446;-1.930;2023-03-14T03:44:09;97948.48;;;4.08;71.06
60642;BME280;46837;52.446;-1.930;2023-03-14T03:45:09;97946.45;;;4.11;71.07
60642;BME280;46837;52.446;-1.930;2023-03-14T03:46:09;97957.02;;;4.14;71.29
60642;BME280;46837;52.446;-1.930;2023-03-14T03:47:09;97959.32;;;4.19;71.29
60642;BME280;46837;52.446;-1.930;2023-03-14T03:48:09;97965.94;;;4.16;71.07
60642;BME280;46837;52.446;-1.930;2023-03-14T03:49:09;97974.40;;;4.18;71.22
60642;BME280;46837;52.446;-1.930;2023-03-14T03:50:09;97976.86;;;4.21;71.32
60642;BME280;46837;52.446;-1.930;2023-03-14T03:51:11;97973.72;;;4.16;71.21
60642;BME280;46837;52.446;-1.930;2023-03-14T03:52:09;97982.37;;;4.17;71.45
60642;BME280;46837;52.446;-1.930;2023-03-14T03:53:09;97984.65;;;4.23;71.48
60642;BME280;46837;52.446;-1.930;2023-03-14T03:54:09;97982.68;;;4.27;71.65
60642;BME280;46837;52.446;-1.930;2023-03-14T03:55:09;97980.43;;;4.17;72.05
60642;BME280;46837;52.446;-1.930;2023-03-14T03:56:09;97992.27;;;4.24;72.48
60642;BME280;46837;52.446;-1.930;2023-03-14T03:57:09;97993.89;;;4.21;72.68
60642;BME280;46837;52.446;-1.930;2023-03-14T03:58:09;97997.09;;;4.29;72.75
60642;BME280;46837;52.446;-1.930;2023-03-14T03:59:09;97996.39;;;4.29;72.92
60642;BME280;46837;52.446;-1.930;2023-03-14T04:00:09;98007.46;;;4.23;73.18
60642;BME280;46837;52.446;-1.930;2023-03-14T04:01:09;98007.05;;;4.03;74.02
60642;BME280;46837;52.446;-1.930;2023-03-14T04:02:09;98013.58;;;4.14;74.33
60642;BME280;46837;52.446;-1.930;2023-03-14T04:03:09;98024.90;;;4.08;74.59
60642;BME280;46837;52.446;-1.930;2023-03-14T04:04:09;98028.50;;;4.14;74.85
60642;BME280;46837;52.446;-1.930;2023-03-14T04:05:09;98029.47;;;4.12;75.01
60642;BME280;46837;52.446;-1.930;2023-03-14T04:06:12;98040.97;;;4.06;75.45
60642;BME280;46837;52.446;-1.930;2023-03-14T04:07:09;98043.35;;;4.06;75.75
60642;BME280;46837;52.446;-1.930;2023-03-14T04:08:09;98044.19;;;4.10;75.93
60642;BME280;46837;52.446;-1.930;2023-03-14T04:09:09;98044.97;;;4.05;76.31
60642;BME280;46837;52.446;-1.930;2023-03-14T04:10:09;98057.36;;;4.02;76.69
60642;BME280;46837;52.446;-1.930;2023-03-14T04:11:09;98055.55;;;3.84;77.40
60642;BME280;46837;52.446;-1.930;2023-03-14T04:12:09;98056.53;;;3.86;78.00
60642;BME280;46837;52.446;-1.930;2023-03-14T04:13:09;98063.05;;;3.89;77.94
60642;BME280;46837;52.446;-1.930;2023-03-14T04:14:09;98072.88;;;3.87;78.13
60642;BME280;46837;52.446;-1.930;2023-03-14T04:15:09;98076.27;;;3.92;78.14
60642;BME280;46837;52.446;-1.930;2023-03-14T04:16:15;98081.21;;;3.97;78.09
60642;BME280;46837;52.446;-1.930;2023-03-14T04:17:09;98096.15;;;3.91;78.78
60642;BME280;46837;52.446;-1.930;2023-03-14T04:18:09;98091.35;;;3.93;78.84
60642;BME280;46837;52.446;-1.930;2023-03-14T04:19:09;98110.30;;;3.94;78.94
60642;BME280;46837;52.446;-1.930;2023-03-14T04:20:09;98106.00;;;3.89;79.27
60642;BME280;46837;52.446;-1.930;2023-03-14T04:21:09;98111.12;;;3.91;79.32
60642;BME280;46837;52.446;-1.930;2023-03-14T04:22:09;98108.25;;;3.90;79.77
60642;BME280;46837;52.446;-1.930;2023-03-14T04:23:09;98114.25;;;3.91;79.76
60642;BME280;46837;52.446;-1.930;2023-03-14T04:24:09;98120.82;;;3.84;80.31
60642;BME280;46837;52.446;-1.930;2023-03-14T04:25:09;98127.08;;;3.83;80.71
60642;BME280;46837;52.446;-1.930;2023-03-14T04:26:09;98126.26;;;3.88;80.62
60642;BME280;46837;52.446;-1.930;2023-03-14T04:27:09;98126.22;;;3.84;80.79
60642;BME280;46837;52.446;-1.930;2023-03-14T04:28:09;98135.95;;;3.79;81.12
60642;BME280;46837;52.446;-1.930;2023-03-14T04:29:09;98134.98;;;3.79;81.29
60642;BME280;46837;52.446;-1.930;2023-03-14T04:30:09;98145.36;;;3.81;81.39
60642;BME280;46837;52.446;-1.930;2023-03-14T04:31:13;98150.71;;;3.76;81.20
60642;BME280;46837;52.446;-1.930;2023-03-14T04:32:09;98148.20;;;3.68;81.61
60642;BME280;46837;52.446;-1.930;2023-03-14T04:33:09;98150.42;;;3.64;81.93
60642;BME280;46837;52.446;-1.930;2023-03-14T04:34:09;98156.08;;;3.66;82.07
60642;BME280;46837;52.446;-1.930;2023-03-14T04:35:09;98157.17;;;3.68;82.02
60642;BME280;46837;52.446;-1.930;2023-03-14T04:36:09;98156.14;;;3.63;82.20
60642;BME280;46837;52.446;-1.930;2023-03-14T04:37:09;98156.79;;;3.63;82.52
60642;BME280;46837;52.446;-1.930;2023-03-14T04:38:09;98161.86;;;3.66;82.53
60642;BME280;46837;52.446;-1.930;2023-03-14T04:39:09;98159.17;;;3.59;82.71
60642;BME280;46837;52.446;-1.930;2023-03-14T04:40:09;98164.42;;;3.56;83.38
60642;BME280;46837;52.446;-1.930;2023-03-14T04:41:09;98166.46;;;3.63;83.26
60642;BME280;46837;52.446;-1.930;2023-03-14T04:42:09;98170.18;;;3.67;82.93
60642;BME280;46837;52.446;-1.930;2023-03-14T04:43:09;98174.38;;;3.69;82.83
60642;BME280;46837;52.446;-1.930;2023-03-14T04:44:09;98171.30;;;3.74;82.88
60642;BME280;46837;52.446;-1.930;2023-03-14T04:45:09;98178.15;;;3.76;82.87
60642;BME280;46837;52.446;-1.930;2023-03-14T04:46:09;98175.67;;;3.78;82.94
60642;BME280;46837;52.446;-1.930;2023-03-14T04:47:09;98181.13;;;3.78;82.88
60642;BME280;46837;52.446;-1.930;2023-03-14T04:48:09;98179.56;;;3.78;83.14
60642;BME280;46837;52.446;-1.930;2023-03-14T04:49:09;98181.67;;;3.79;83.28
60642;BME280;46837;52.446;-1.930;2023-03-14T04:50:09;98183.82;;;3.80;83.29
60642;BME280;46837;52.446;-1.930;2023-03-14T04:51:09;98179.57;;;3.70;83.55
60642;BME280;46837;52.446;-1.930;2023-03-14T04:52:09;98183.02;;;3.69;84.05
60642;BME280;46837;52.446;-1.930;2023-03-14T04:53:09;98182.64;;;3.73;83.90
60642;BME280;46837;52.446;-1.930;2023-03-14T04:54:09;98180.48;;;3.74;83.87
60642;BME280;46837;52.446;-1.930;2023-03-14T04:55:09;98183.72;;;3.78;83.84
60642;BME280;46837;52.446;-1.930;2023-03-14T04:56:09;98188.64;;;3.78;83.95
60642;BME280;46837;52.446;-1.930;2023-03-14T04:57:09;98193.49;;;3.80;83.92
60642;BME280;46837;52.446;-1.930;2023-03-14T04:58:09;98197.45;;;3.75;84.06
60642;BME280;46837;52.446;-1.930;2023-03-14T04:59:09;98198.33;;;3.64;84.49
60642;BME280;46837;52.446;-1.930;2023-03-14T05:00:12;98207.19;;;3.64;84.70
60642;BME280;46837;52.446;-1.930;2023-03-14T05:01:09;98203.61;;;3.71;84.71
60642;BME280;46837;52.446;-1.930;2023-03-14T05:02:09;98204.20;;;3.69;84.59
60642;BME280;46837;52.446;-1.930;2023-03-14T05:03:09;98209.66;;;3.69;84.69
60642;BME280;46837;52.446;-1.930;2023-03-14T05:04:09;98209.67;;;3.72;84.65
60642;BME280;46837;52.446;-1.930;2023-03-14T05:05:09;98223.22;;;3.67;84.66
60642;BME280;46837;52.446;-1.930;2023-03-14T05:06:09;98222.84;;;3.66;84.87
60642;BME280;46837;52.446;-1.930;2023-03-14T05:07:09;98226.69;;;3.64;84.69
60642;BME280;46837;52.446;-1.930;2023-03-14T05:08:09;98233.85;;;3.69;84.76
60642;BME280;46837;52.446;-1.930;2023-03-14T05:09:09;98234.66;;;3.73;84.56
60642;BME280;46837;52.446;-1.930;2023-03-14T05:10:09;98237.38;;;3.68;84.56
60642;BME280;46837;52.446;-1.930;2023-03-14T05:11:10;98233.97;;;3.72;84.69
60642;BME280;46837;52.446;-1.930;2023-03-14T05:12:09;98238.61;;;3.74;84.52
60642;BME280;46837;52.446;-1.930;2023-03-14T05:13:09;98243.62;;;3.76;84.37
60642;BME280;46837;52.446;-1.930;2023-03-14T05:14:09;98245.80;;;3.75;84.38
60642;BME280;46837;52.446;-1.930;2023-03-14T05:15:09;98253.79;;;3.78;84.33
60642;BME280;46837;52.446;-1.930;2023-03-14T05:16:09;98253.89;;;3.80;84.23
60642;BME280;46837;52.446;-1.930;2023-03-14T05:17:09;98257.24;;;3.77;84.25
60642;BME280;46837;52.446;-1.930;2023-03-14T05:18:09;98261.74;;;3.79;84.22
60642;BME280;46837;52.446;-1.930;2023-03-14T05:19:10;98258.22;;;3.74;84.38
60642;BME280;46837;52.446;-1.930;2023-03-14T05:20:11;98261.57;;;3.69;84.53
60642;BME280;46837;52.446;-1.930;2023-03-14T05:21:09;98267.34;;;3.72;84.64
60642;BME280;46837;52.446;-1.930;2023-03-14T05:22:09;98264.98;;;3.64;84.50
60642;BME280;46837;52.446;-1.930;2023-03-14T05:23:09;98269.36;;;3.64;84.82
60642;BME280;46837;52.446;-1.930;2023-03-14T05:24:09;98271.78;;;3.67;84.79
60642;BME280;46837;52.446;-1.930;2023-03-14T05:25:09;98275.73;;;3.71;84.72
60642;BME280;46837;52.446;-1.930;2023-03-14T05:26:09;98278.59;;;3.75;84.61
60642;BME280;46837;52.446;-1.930;2023-03-14T05:27:09;98284.79;;;3.76;84.51